createdAt,value
2023-01-08T00:01:35.572Z,12.30
2023-01-08T00:04:04.147Z,12.20
2023-01-08T00:06:35.374Z,12.10
2023-01-08T00:09:03.075Z,12.20
2023-01-08T00:11:31.630Z,12.20
2023-01-08T00:14:00.280Z,12.20
2023-01-08T00:16:28.928Z,12.10
2023-01-08T00:18:57.453Z,12.20
2023-01-08T00:21:26.028Z,12.10
2023-01-08T00:23:54.574Z,12.10
2023-01-08T00:26:23.411Z,12.00
2023-01-08T00:28:52.034Z,12.00
2023-01-08T00:31:20.719Z,12.00
2023-01-08T00:36:19.406Z,12.10
2023-01-08T00:38:48.409Z,12.00
2023-01-08T00:41:17.382Z,12.00
2023-01-08T00:43:46.006Z,12.10
2023-01-08T00:46:14.603Z,12.10
2023-01-08T00:48:43.246Z,12.10
2023-01-08T00:51:13.273Z,12.10
2023-01-08T00:53:41.809Z,12.10
2023-01-08T00:56:11.357Z,12.10
2023-01-08T00:58:39.926Z,12.10
2023-01-08T01:01:13.956Z,12.10
2023-01-08T01:03:42.913Z,12.10
2023-01-08T01:06:12.864Z,12.10
2023-01-08T01:08:42.030Z,12.20
2023-01-08T01:11:13.275Z,12.20
2023-01-08T01:16:10.104Z,12.20
2023-01-08T01:18:38.720Z,12.20
2023-01-08T01:21:18.858Z,12.20
2023-01-08T01:23:47.399Z,12.10
2023-01-08T01:26:18.701Z,12.10
2023-01-08T01:28:52.070Z,12.10
2023-01-08T01:31:21.725Z,12.00
2023-01-08T01:33:51.757Z,12.10
2023-01-08T01:36:23.522Z,11.90
2023-01-08T01:38:54.695Z,12.10
2023-01-08T01:41:32.342Z,12.00
2023-01-08T01:44:03.803Z,12.10
2023-01-08T01:46:35.793Z,12.10
2023-01-08T01:49:07.415Z,12.10
2023-01-08T01:51:37.109Z,11.90
2023-01-08T01:54:08.202Z,12.60
2023-01-08T01:56:36.833Z,11.80
2023-01-08T01:59:06.408Z,11.70
2023-01-08T02:01:35.968Z,11.60
2023-01-08T02:04:04.809Z,11.60
2023-01-08T02:06:41.873Z,11.50
2023-01-08T02:09:37.067Z,12.10
2023-01-08T02:12:17.348Z,11.40
2023-01-08T02:15:03.055Z,11.40
2023-01-08T02:18:07.639Z,11.40
2023-01-08T02:20:57.040Z,11.40
2023-01-08T02:23:43.746Z,11.40
2023-01-08T02:26:35.018Z,11.40
2023-01-08T02:29:09.547Z,11.50
2023-01-08T02:31:40.390Z,11.40
2023-01-08T02:34:09.184Z,11.50
2023-01-08T02:36:43.982Z,11.50
2023-01-08T02:39:24.410Z,11.50
2023-01-08T02:42:04.912Z,11.50
2023-01-08T02:44:53.043Z,11.40
2023-01-08T02:47:27.571Z,11.60
2023-01-08T02:49:59.203Z,11.50
2023-01-08T02:52:30.827Z,11.60
2023-01-08T02:55:01.825Z,11.60
2023-01-08T02:57:33.436Z,11.70
2023-01-08T03:00:02.124Z,11.70
2023-01-08T03:02:33.807Z,11.80
2023-01-08T03:05:05.387Z,11.80
2023-01-08T03:07:34.366Z,11.90
2023-01-08T03:10:02.985Z,11.80
2023-01-08T03:12:37.350Z,11.80
2023-01-08T03:15:09.185Z,11.80
2023-01-08T03:17:40.817Z,11.90
2023-01-08T03:20:14.933Z,11.80
2023-01-08T03:22:46.597Z,11.80
2023-01-08T03:25:16.983Z,11.80
2023-01-08T03:27:48.865Z,11.80
2023-01-08T03:30:19.845Z,11.70
2023-01-08T03:32:50.944Z,11.60
2023-01-08T03:35:23.003Z,11.60
2023-01-08T03:37:54.609Z,11.50
2023-01-08T03:40:26.260Z,11.50
2023-01-08T03:42:55.428Z,11.50
2023-01-08T03:45:25.014Z,11.50
2023-01-08T03:47:54.703Z,11.50
2023-01-08T03:50:26.510Z,11.50
2023-01-08T03:52:55.038Z,11.40
2023-01-08T03:55:23.663Z,11.40
2023-01-08T03:57:53.761Z,11.30
2023-01-08T04:00:22.442Z,11.30
2023-01-08T04:05:19.297Z,11.30
2023-01-08T04:07:47.839Z,11.30
2023-01-08T04:10:16.447Z,11.20
2023-01-08T04:15:14.380Z,11.20
2023-01-08T04:17:43.008Z,11.20
2023-01-08T04:20:12.123Z,11.20
2023-01-08T04:22:40.747Z,11.20
2023-01-08T04:25:09.648Z,11.20
2023-01-08T04:27:38.431Z,11.10
2023-01-08T04:30:07.574Z,11.20
2023-01-08T04:32:36.158Z,11.10
2023-01-08T04:35:05.017Z,11.10
2023-01-08T04:37:33.549Z,11.10
2023-01-08T04:40:02.109Z,11.00
2023-01-08T04:42:30.666Z,11.00
2023-01-08T04:44:59.238Z,11.00
2023-01-08T04:47:27.775Z,11.10
2023-01-08T04:49:56.422Z,11.00
2023-01-08T04:52:24.992Z,11.00
2023-01-08T04:54:53.537Z,11.00
2023-01-08T04:57:22.115Z,11.10
2023-01-08T04:59:50.666Z,11.10
2023-01-08T05:02:19.672Z,11.10
2023-01-08T05:04:49.065Z,11.10
2023-01-08T05:07:17.633Z,11.10
2023-01-08T05:09:46.191Z,11.30
2023-01-08T05:12:14.735Z,11.10
2023-01-08T05:14:43.311Z,11.10
2023-01-08T05:17:12.078Z,11.20
2023-01-08T05:19:40.638Z,11.10
2023-01-08T05:22:09.199Z,11.10
2023-01-08T05:24:37.764Z,11.20
2023-01-08T05:32:02.783Z,11.20
2023-01-08T05:34:31.330Z,11.20
2023-01-08T05:36:59.923Z,11.20
2023-01-08T05:39:28.438Z,11.10
2023-01-08T05:41:56.996Z,11.00
2023-01-08T05:44:25.544Z,11.00
2023-01-08T05:46:57.920Z,11.00
2023-01-08T05:49:26.551Z,11.00
2023-01-08T05:51:55.097Z,10.90
2023-01-08T05:54:23.657Z,10.90
2023-01-08T05:56:52.183Z,10.90
2023-01-08T05:59:20.738Z,10.90
2023-01-08T06:01:49.440Z,10.90
2023-01-08T06:04:18.074Z,10.80
2023-01-08T06:06:46.654Z,10.80
2023-01-08T06:11:43.403Z,10.60
2023-01-08T06:14:12.005Z,10.80
2023-01-08T06:16:40.565Z,10.80
2023-01-08T06:19:11.009Z,10.80
2023-01-08T06:21:39.714Z,10.90
2023-01-08T06:24:08.398Z,10.90
2023-01-08T06:26:36.936Z,11.00
2023-01-08T06:29:05.474Z,10.90
2023-01-08T06:31:34.492Z,10.90
2023-01-08T06:34:03.018Z,11.00
2023-01-08T06:36:31.616Z,11.00
2023-01-08T06:39:00.154Z,11.10
2023-01-08T06:41:28.727Z,10.60
2023-01-08T06:43:57.240Z,10.90
2023-01-08T06:51:22.293Z,10.80
2023-01-08T06:53:50.868Z,10.80
2023-01-08T06:56:19.570Z,10.70
2023-01-08T07:01:17.715Z,10.50
2023-01-08T07:03:46.626Z,10.40
2023-01-08T07:06:20.753Z,10.20
2023-01-08T07:11:17.903Z,10.10
2023-01-08T07:13:46.529Z,10.00
2023-01-08T07:16:16.144Z,9.90
2023-01-08T07:21:13.399Z,9.70
2023-01-08T07:23:41.968Z,9.80
2023-01-08T07:26:10.481Z,9.80
2023-01-08T07:28:39.168Z,9.70
2023-01-08T07:31:08.071Z,9.70
2023-01-08T07:33:37.277Z,9.60
2023-01-08T07:36:06.386Z,9.70
2023-01-08T07:38:35.000Z,9.60
2023-01-08T07:41:04.413Z,9.70
2023-01-08T07:43:32.957Z,9.60
2023-01-08T07:46:03.998Z,9.70
2023-01-08T07:48:32.646Z,9.60
2023-01-08T07:51:09.213Z,9.60
2023-01-08T07:53:38.585Z,9.70
2023-01-08T07:56:09.936Z,9.50
2023-01-08T07:58:41.920Z,9.70
2023-01-08T08:01:12.403Z,9.70
2023-01-08T08:03:41.625Z,9.20
2023-01-08T08:06:10.896Z,9.80
2023-01-08T08:08:42.011Z,9.80
2023-01-08T08:11:10.074Z,9.80
2023-01-08T08:13:40.253Z,9.40
2023-01-08T08:16:09.151Z,9.80
2023-01-08T08:21:06.670Z,9.80
2023-01-08T08:23:36.672Z,9.90
2023-01-08T08:26:07.652Z,9.90
2023-01-08T08:28:36.217Z,9.90
2023-01-08T08:31:04.797Z,10.00
2023-01-08T08:33:33.477Z,10.00
2023-01-08T08:36:02.094Z,10.00
2023-01-08T08:40:58.949Z,10.00
2023-01-08T08:43:27.573Z,10.00
2023-01-08T08:45:59.021Z,10.00
2023-01-08T08:48:27.697Z,10.00
2023-01-08T08:50:56.230Z,10.00
2023-01-08T08:53:26.904Z,10.00
2023-01-08T08:55:55.072Z,10.00
2023-01-08T08:58:23.776Z,10.00
2023-01-08T09:00:52.336Z,10.00
2023-01-08T09:03:21.041Z,10.00
2023-01-08T09:05:49.570Z,9.90
2023-01-08T09:08:18.111Z,10.00
2023-01-08T09:10:46.677Z,10.10
2023-01-08T09:15:43.545Z,10.30
2023-01-08T09:18:12.150Z,10.30
2023-01-08T09:20:40.692Z,10.20
2023-01-08T09:23:10.391Z,10.20
2023-01-08T09:25:38.936Z,10.20
2023-01-08T16:25:20.068Z,11.60
2023-01-08T16:27:48.711Z,11.20
2023-01-08T16:30:17.698Z,11.10
2023-01-08T16:32:48.135Z,11.00
2023-01-08T16:35:16.771Z,10.80
2023-01-08T16:37:45.544Z,11.00
2023-01-08T16:40:15.002Z,10.90
2023-01-08T16:42:43.770Z,10.80
2023-01-08T16:45:12.311Z,10.80
2023-01-08T16:47:41.065Z,10.80
2023-01-08T16:50:11.831Z,10.90
2023-01-08T16:52:40.552Z,10.80
2023-01-08T16:55:11.080Z,10.70
2023-01-08T16:57:39.689Z,10.70
2023-01-08T17:00:09.144Z,10.60
2023-01-08T17:02:38.826Z,10.40
2023-01-08T17:05:07.961Z,10.50
2023-01-08T17:07:36.489Z,10.50
2023-01-08T17:12:33.911Z,10.40
2023-01-08T17:15:02.777Z,10.40
2023-01-08T17:17:31.396Z,10.40
2023-01-08T17:19:59.985Z,10.30
2023-01-08T17:24:56.801Z,10.20
2023-01-08T17:27:25.601Z,10.20
2023-01-08T17:29:54.283Z,10.30
2023-01-08T17:34:51.321Z,10.20
2023-01-08T17:37:19.896Z,10.10
2023-01-08T17:39:49.639Z,10.20
2023-01-08T17:45:00.284Z,10.10
2023-01-08T17:47:28.946Z,10.10
2023-01-08T17:49:58.458Z,10.10
2023-01-08T17:57:24.110Z,10.10
2023-01-08T17:59:52.686Z,9.90
2023-01-08T18:04:49.768Z,11.00
2023-01-08T18:07:18.633Z,10.00
2023-01-08T18:09:49.298Z,10.00
2023-01-08T18:14:46.271Z,9.90
2023-01-08T18:24:40.555Z,9.80
2023-01-08T18:27:09.180Z,9.80
2023-01-08T18:29:37.757Z,9.80
2023-01-08T18:32:06.611Z,9.80
2023-01-08T18:34:35.288Z,9.70
2023-01-08T18:37:03.854Z,9.70
2023-01-08T18:39:32.457Z,9.70
2023-01-08T18:42:18.724Z,9.80
2023-01-08T18:44:48.259Z,9.80
2023-01-08T18:49:45.003Z,9.90
2023-01-08T18:54:42.526Z,9.90
2023-01-08T18:57:11.347Z,9.90
2023-01-08T18:59:40.139Z,9.90
2023-01-08T19:02:10.616Z,10.00
2023-01-08T19:04:39.248Z,9.90
2023-01-08T19:07:07.821Z,9.90
2023-01-08T19:09:36.577Z,10.00
2023-01-08T19:12:05.370Z,10.00
2023-01-08T19:14:34.017Z,10.00
2023-01-08T19:19:30.822Z,10.10
2023-01-08T19:21:59.495Z,10.10
2023-01-08T19:24:28.220Z,9.90
2023-01-08T19:26:56.760Z,10.10
2023-01-08T19:29:25.345Z,10.10
2023-01-08T19:31:53.925Z,10.10
2023-01-08T19:34:22.681Z,10.10
2023-01-08T19:39:19.501Z,10.20
2023-01-08T19:42:06.027Z,10.10
2023-01-08T19:44:34.563Z,10.10
2023-01-08T19:47:03.192Z,10.10
2023-01-08T19:49:31.845Z,10.10
2023-01-08T19:52:00.459Z,9.90
2023-01-08T19:54:29.181Z,9.90
2023-01-08T19:56:57.826Z,10.10
2023-01-08T19:59:26.434Z,10.10
2023-01-08T20:04:23.440Z,10.10
2023-01-08T20:06:52.362Z,10.10
2023-01-08T20:09:20.915Z,10.10
2023-01-08T20:11:49.611Z,10.10
2023-01-08T20:14:20.731Z,10.10
2023-01-08T20:16:48.468Z,10.10
2023-01-08T20:19:16.987Z,10.10
2023-01-08T20:21:45.825Z,10.10
2023-01-08T20:24:15.175Z,10.10
2023-01-08T20:26:45.273Z,10.20
2023-01-08T20:31:44.134Z,10.30
2023-01-08T20:34:15.665Z,10.20
2023-01-08T20:36:45.565Z,10.20
2023-01-08T20:39:16.880Z,10.20
2023-01-08T20:42:00.846Z,10.30
2023-01-08T20:44:18.198Z,10.10
2023-01-08T20:46:46.798Z,10.20
2023-01-08T20:49:18.437Z,10.30
2023-01-08T20:51:57.835Z,10.30
2023-01-08T20:54:17.935Z,10.30
2023-01-08T20:56:47.555Z,10.30
2023-01-08T20:59:17.162Z,10.40
2023-01-08T21:01:46.037Z,10.40
2023-01-08T21:04:14.600Z,10.40
2023-01-08T21:06:43.159Z,10.50
2023-01-08T21:09:13.885Z,10.60
2023-01-08T21:11:43.302Z,10.70
2023-01-08T21:14:12.513Z,10.80
2023-01-08T21:16:41.316Z,10.80
2023-01-08T21:19:10.563Z,10.90
2023-01-08T21:21:41.088Z,10.90
2023-01-08T21:24:12.094Z,10.90
2023-01-08T21:26:40.700Z,10.90
2023-01-08T21:29:11.054Z,11.00
2023-01-08T21:31:40.122Z,11.00
2023-01-08T21:34:09.119Z,11.00
2023-01-08T21:36:39.137Z,10.70
2023-01-08T21:39:08.166Z,11.00
2023-01-08T21:41:54.199Z,11.10
2023-01-08T21:44:42.664Z,11.00
2023-01-08T21:47:14.303Z,11.10
2023-01-08T21:49:43.040Z,11.10
2023-01-08T21:52:29.776Z,11.10
2023-01-08T21:54:58.474Z,11.10
2023-01-08T21:59:58.339Z,11.10
2023-01-08T22:02:27.132Z,11.10
2023-01-08T22:04:56.936Z,11.00
2023-01-08T22:09:54.525Z,11.10
2023-01-08T22:12:24.198Z,11.10
2023-01-08T22:14:56.548Z,10.90
2023-01-08T22:22:22.389Z,10.60
2023-01-08T22:24:52.495Z,10.50
2023-01-08T22:29:49.624Z,10.40
2023-01-08T22:32:18.315Z,10.40
2023-01-08T22:34:46.988Z,10.30
2023-01-08T22:37:17.611Z,10.30
2023-01-08T22:39:47.211Z,10.20
2023-01-08T22:42:16.900Z,10.20
2023-01-08T22:44:45.730Z,10.20
2023-01-08T22:47:17.075Z,10.10
2023-01-08T22:49:48.606Z,10.10
2023-01-08T22:52:17.401Z,10.00
2023-01-08T22:54:45.937Z,10.10
2023-01-08T22:57:14.512Z,10.00
2023-01-08T22:59:43.177Z,9.90
2023-01-08T23:02:11.838Z,9.90
2023-01-08T23:04:40.373Z,9.80
2023-01-08T23:07:08.931Z,9.80
2023-01-08T23:09:37.488Z,9.80
2023-01-08T23:12:06.193Z,9.70
2023-01-08T23:14:34.726Z,9.80
2023-01-08T23:17:03.777Z,9.70
2023-01-08T23:19:32.348Z,9.70
2023-01-08T23:22:01.331Z,9.70
2023-01-08T23:24:30.819Z,9.70
2023-01-08T23:26:59.452Z,9.60
2023-01-08T23:29:29.762Z,9.60
2023-01-08T23:31:58.356Z,9.60
2023-01-08T23:34:27.037Z,9.60
2023-01-08T23:36:55.563Z,9.60
2023-01-08T23:41:54.002Z,9.60
2023-01-08T23:44:22.698Z,9.30
2023-01-08T23:46:51.227Z,9.50
2023-01-08T23:51:48.139Z,9.30
2023-01-08T23:54:16.976Z,9.30
2023-01-08T23:56:45.710Z,9.20
2023-01-08T23:59:14.313Z,9.10
